sensor_id;sensor_type;location;lat;lon;timestamp;P1;durP1;ratioP1;P2;durP2;ratioP2
3541;SDS011;1785;47.388;8.538;2023-12-29T00:01:34;7.70;;;7.00;;
3541;SDS011;1785;47.388;8.538;2023-12-29T00:04:00;9.30;;;6.83;;
3541;SDS011;1785;47.388;8.538;2023-12-29T00:06:27;6.93;;;6.23;;
3541;SDS011;1785;47.388;8.538;2023-12-29T00:08:53;7.47;;;6.80;;
3541;SDS011;1785;47.388;8.538;2023-12-29T00:11:19;6.63;;;5.87;;
3541;SDS011;1785;47.388;8.538;2023-12-29T00:13:46;7.17;;;6.53;;
3541;SDS011;1785;47.388;8.538;2023-12-29T00:16:13;6.83;;;6.23;;
3541;SDS011;1785;47.388;8.538;2023-12-29T00:18:39;7.60;;;6.90;;
3541;SDS011;1785;47.388;8.538;2023-12-29T00:21:05;8.67;;;7.17;;
3541;SDS011;1785;47.388;8.538;2023-12-29T00:23:33;7.03;;;6.43;;
3541;SDS011;1785;47.388;8.538;2023-12-29T00:25:59;7.53;;;6.90;;
3541;SDS011;1785;47.388;8.538;2023-12-29T00:28:25;8.50;;;7.70;;
3541;SDS011;1785;47.388;8.538;2023-12-29T00:30:51;7.23;;;6.63;;
3541;SDS011;1785;47.388;8.538;2023-12-29T00:33:18;8.60;;;7.87;;
3541;SDS011;1785;47.388;8.538;2023-12-29T00:35:44;7.77;;;7.03;;
3541;SDS011;1785;47.388;8.538;2023-12-29T00:38:10;7.57;;;6.87;;
3541;SDS011;1785;47.388;8.538;2023-12-29T00:40:36;7.80;;;7.10;;
3541;SDS011;1785;47.388;8.538;2023-12-29T00:43:03;8.80;;;7.93;;
3541;SDS011;1785;47.388;8.538;2023-12-29T00:45:29;8.00;;;7.37;;
3541;SDS011;1785;47.388;8.538;2023-12-29T00:47:58;8.67;;;7.73;;
3541;SDS011;1785;47.388;8.538;2023-12-29T00:50:24;8.67;;;7.87;;
3541;SDS011;1785;47.388;8.538;2023-12-29T00:52:51;8.73;;;8.03;;
3541;SDS011;1785;47.388;8.538;2023-12-29T00:55:17;8.87;;;8.07;;
3541;SDS011;1785;47.388;8.538;2023-12-29T00:57:45;8.90;;;8.00;;
3541;SDS011;1785;47.388;8.538;2023-12-29T01:00:11;8.13;;;7.37;;
3541;SDS011;1785;47.388;8.538;2023-12-29T01:02:38;8.80;;;7.90;;
3541;SDS011;1785;47.388;8.538;2023-12-29T01:05:05;8.30;;;7.60;;
3541;SDS011;1785;47.388;8.538;2023-12-29T01:07:32;7.80;;;7.10;;
3541;SDS011;1785;47.388;8.538;2023-12-29T01:09:58;8.20;;;7.50;;
3541;SDS011;1785;47.388;8.538;2023-12-29T01:12:24;7.20;;;6.60;;
3541;SDS011;1785;47.388;8.538;2023-12-29T01:14:51;7.90;;;7.20;;
3541;SDS011;1785;47.388;8.538;2023-12-29T01:17:17;8.00;;;7.27;;
3541;SDS011;1785;47.388;8.538;2023-12-29T01:19:44;7.13;;;6.53;;
3541;SDS011;1785;47.388;8.538;2023-12-29T01:22:10;7.33;;;6.83;;
3541;SDS011;1785;47.388;8.538;2023-12-29T01:24:36;7.90;;;7.20;;
3541;SDS011;1785;47.388;8.538;2023-12-29T01:27:02;6.73;;;6.13;;
3541;SDS011;1785;47.388;8.538;2023-12-29T01:29:30;6.80;;;6.03;;
3541;SDS011;1785;47.388;8.538;2023-12-29T01:31:57;6.70;;;6.20;;
3541;SDS011;1785;47.388;8.538;2023-12-29T01:34:23;6.40;;;5.90;;
3541;SDS011;1785;47.388;8.538;2023-12-29T01:36:50;6.80;;;6.20;;
3541;SDS011;1785;47.388;8.538;2023-12-29T01:39:17;7.57;;;6.50;;
3541;SDS011;1785;47.388;8.538;2023-12-29T01:41:43;6.50;;;6.00;;
3541;SDS011;1785;47.388;8.538;2023-12-29T01:44:19;7.00;;;6.40;;
3541;SDS011;1785;47.388;8.538;2023-12-29T01:46:46;7.03;;;6.33;;
3541;SDS011;1785;47.388;8.538;2023-12-29T01:49:15;6.43;;;5.93;;
3541;SDS011;1785;47.388;8.538;2023-12-29T01:51:42;6.67;;;5.57;;
3541;SDS011;1785;47.388;8.538;2023-12-29T01:54:09;5.40;;;5.00;;
3541;SDS011;1785;47.388;8.538;2023-12-29T01:56:37;9.70;;;6.30;;
3541;SDS011;1785;47.388;8.538;2023-12-29T01:59:03;4.90;;;4.50;;
3541;SDS011;1785;47.388;8.538;2023-12-29T02:01:30;4.80;;;4.50;;
3541;SDS011;1785;47.388;8.538;2023-12-29T02:03:57;5.10;;;4.70;;
3541;SDS011;1785;47.388;8.538;2023-12-29T02:06:24;4.77;;;4.37;;
3541;SDS011;1785;47.388;8.538;2023-12-29T02:08:51;5.40;;;4.90;;
3541;SDS011;1785;47.388;8.538;2023-12-29T02:11:17;5.50;;;5.07;;
3541;SDS011;1785;47.388;8.538;2023-12-29T02:13:43;5.50;;;5.10;;
3541;SDS011;1785;47.388;8.538;2023-12-29T02:16:12;5.60;;;5.17;;
3541;SDS011;1785;47.388;8.538;2023-12-29T02:18:44;5.50;;;5.10;;
3541;SDS011;1785;47.388;8.538;2023-12-29T02:21:12;5.07;;;4.67;;
3541;SDS011;1785;47.388;8.538;2023-12-29T02:23:39;5.47;;;5.00;;
3541;SDS011;1785;47.388;8.538;2023-12-29T02:26:07;6.33;;;4.43;;
3541;SDS011;1785;47.388;8.538;2023-12-29T02:28:37;4.70;;;4.30;;
3541;SDS011;1785;47.388;8.538;2023-12-29T02:31:10;5.07;;;4.67;;
3541;SDS011;1785;47.388;8.538;2023-12-29T02:33:40;5.30;;;4.80;;
3541;SDS011;1785;47.388;8.538;2023-12-29T02:36:08;4.63;;;4.33;;
3541;SDS011;1785;47.388;8.538;2023-12-29T02:38:35;5.37;;;4.93;;
3541;SDS011;1785;47.388;8.538;2023-12-29T02:41:02;5.70;;;5.30;;
3541;SDS011;1785;47.388;8.538;2023-12-29T02:43:31;4.80;;;4.40;;
3541;SDS011;1785;47.388;8.538;2023-12-29T02:45:57;5.27;;;4.87;;
3541;SDS011;1785;47.388;8.538;2023-12-29T02:48:23;5.70;;;5.20;;
3541;SDS011;1785;47.388;8.538;2023-12-29T02:50:49;5.67;;;5.27;;
3541;SDS011;1785;47.388;8.538;2023-12-29T02:53:16;5.40;;;5.00;;
3541;SDS011;1785;47.388;8.538;2023-12-29T02:55:42;5.03;;;4.73;;
3541;SDS011;1785;47.388;8.538;2023-12-29T02:58:08;4.80;;;4.40;;
3541;SDS011;1785;47.388;8.538;2023-12-29T03:00:35;4.70;;;4.40;;
3541;SDS011;1785;47.388;8.538;2023-12-29T03:03:01;5.10;;;4.70;;
3541;SDS011;1785;47.388;8.538;2023-12-29T03:05:28;5.03;;;4.53;;
3541;SDS011;1785;47.388;8.538;2023-12-29T03:07:54;5.27;;;4.87;;
3541;SDS011;1785;47.388;8.538;2023-12-29T03:10:20;5.90;;;5.30;;
3541;SDS011;1785;47.388;8.538;2023-12-29T03:12:46;5.40;;;4.93;;
3541;SDS011;1785;47.388;8.538;2023-12-29T03:15:13;5.53;;;5.03;;
3541;SDS011;1785;47.388;8.538;2023-12-29T03:17:40;5.70;;;5.20;;
3541;SDS011;1785;47.388;8.538;2023-12-29T03:20:06;5.80;;;5.40;;
3541;SDS011;1785;47.388;8.538;2023-12-29T03:22:33;5.40;;;4.70;;
3541;SDS011;1785;47.388;8.538;2023-12-29T03:24:59;4.80;;;4.50;;
3541;SDS011;1785;47.388;8.538;2023-12-29T03:27:25;5.47;;;4.90;;
3541;SDS011;1785;47.388;8.538;2023-12-29T03:29:51;6.53;;;5.93;;
3541;SDS011;1785;47.388;8.538;2023-12-29T03:32:17;5.30;;;4.93;;
3541;SDS011;1785;47.388;8.538;2023-12-29T03:34:44;5.10;;;4.70;;
3541;SDS011;1785;47.388;8.538;2023-12-29T03:37:11;6.60;;;5.50;;
3541;SDS011;1785;47.388;8.538;2023-12-29T03:39:37;5.47;;;4.97;;
3541;SDS011;1785;47.388;8.538;2023-12-29T03:42:03;6.00;;;5.50;;
3541;SDS011;1785;47.388;8.538;2023-12-29T03:44:29;5.70;;;5.20;;
3541;SDS011;1785;47.388;8.538;2023-12-29T03:46:55;5.93;;;5.53;;
3541;SDS011;1785;47.388;8.538;2023-12-29T03:49:22;7.63;;;5.70;;
3541;SDS011;1785;47.388;8.538;2023-12-29T03:51:48;5.60;;;5.20;;
3541;SDS011;1785;47.388;8.538;2023-12-29T03:54:14;6.20;;;5.70;;
3541;SDS011;1785;47.388;8.538;2023-12-29T03:56:42;6.17;;;5.30;;
3541;SDS011;1785;47.388;8.538;2023-12-29T03:59:08;5.77;;;5.27;;
3541;SDS011;1785;47.388;8.538;2023-12-29T04:01:34;5.30;;;4.97;;
3541;SDS011;1785;47.388;8.538;2023-12-29T04:04:00;6.10;;;5.57;;
3541;SDS011;1785;47.388;8.538;2023-12-29T04:06:27;6.00;;;5.50;;
3541;SDS011;1785;47.388;8.538;2023-12-29T04:08:53;5.40;;;4.90;;
3541;SDS011;1785;47.388;8.538;2023-12-29T04:11:19;8.83;;;6.30;;
3541;SDS011;1785;47.388;8.538;2023-12-29T04:13:46;6.87;;;6.37;;
3541;SDS011;1785;47.388;8.538;2023-12-29T04:16:12;5.60;;;5.10;;
3541;SDS011;1785;47.388;8.538;2023-12-29T04:18:38;6.80;;;6.20;;
3541;SDS011;1785;47.388;8.538;2023-12-29T04:21:04;7.00;;;6.30;;
3541;SDS011;1785;47.388;8.538;2023-12-29T04:23:30;6.73;;;6.33;;
3541;SDS011;1785;47.388;8.538;2023-12-29T04:25:57;6.87;;;6.23;;
3541;SDS011;1785;47.388;8.538;2023-12-29T04:28:23;6.87;;;6.27;;
3541;SDS011;1785;47.388;8.538;2023-12-29T04:30:49;6.13;;;5.63;;
3541;SDS011;1785;47.388;8.538;2023-12-29T04:33:15;8.40;;;6.60;;
3541;SDS011;1785;47.388;8.538;2023-12-29T04:35:41;7.60;;;6.60;;
3541;SDS011;1785;47.388;8.538;2023-12-29T04:38:07;6.70;;;6.10;;
3541;SDS011;1785;47.388;8.538;2023-12-29T04:40:34;7.17;;;6.50;;
3541;SDS011;1785;47.388;8.538;2023-12-29T04:43:00;5.93;;;5.53;;
3541;SDS011;1785;47.388;8.538;2023-12-29T04:45:26;6.23;;;5.73;;
3541;SDS011;1785;47.388;8.538;2023-12-29T04:47:54;6.10;;;5.60;;
3541;SDS011;1785;47.388;8.538;2023-12-29T04:50:20;6.00;;;5.43;;
3541;SDS011;1785;47.388;8.538;2023-12-29T04:52:46;5.80;;;5.33;;
3541;SDS011;1785;47.388;8.538;2023-12-29T04:55:12;6.20;;;5.70;;
3541;SDS011;1785;47.388;8.538;2023-12-29T04:57:38;6.93;;;6.03;;
3541;SDS011;1785;47.388;8.538;2023-12-29T05:00:06;6.13;;;5.60;;
3541;SDS011;1785;47.388;8.538;2023-12-29T05:02:33;6.90;;;5.80;;
3541;SDS011;1785;47.388;8.538;2023-12-29T05:04:59;5.73;;;5.27;;
3541;SDS011;1785;47.388;8.538;2023-12-29T05:07:26;6.00;;;5.50;;
3541;SDS011;1785;47.388;8.538;2023-12-29T05:09:52;5.60;;;5.20;;
3541;SDS011;1785;47.388;8.538;2023-12-29T05:12:18;6.40;;;5.90;;
3541;SDS011;1785;47.388;8.538;2023-12-29T05:14:44;5.53;;;5.03;;
3541;SDS011;1785;47.388;8.538;2023-12-29T05:17:11;5.97;;;5.47;;
3541;SDS011;1785;47.388;8.538;2023-12-29T05:19:37;6.07;;;5.47;;
3541;SDS011;1785;47.388;8.538;2023-12-29T05:22:03;6.50;;;5.90;;
3541;SDS011;1785;47.388;8.538;2023-12-29T05:24:29;6.30;;;5.17;;
3541;SDS011;1785;47.388;8.538;2023-12-29T05:26:56;6.13;;;5.53;;
3541;SDS011;1785;47.388;8.538;2023-12-29T05:29:22;6.27;;;5.77;;
3541;SDS011;1785;47.388;8.538;2023-12-29T05:31:48;6.30;;;5.70;;
3541;SDS011;1785;47.388;8.538;2023-12-29T05:34:15;8.17;;;6.40;;
3541;SDS011;1785;47.388;8.538;2023-12-29T05:36:41;7.27;;;6.67;;
3541;SDS011;1785;47.388;8.538;2023-12-29T05:39:07;6.77;;;6.07;;
3541;SDS011;1785;47.388;8.538;2023-12-29T05:41:33;7.10;;;6.50;;
3541;SDS011;1785;47.388;8.538;2023-12-29T05:44:00;6.93;;;6.43;;
3541;SDS011;1785;47.388;8.538;2023-12-29T05:46:26;8.60;;;6.80;;
3541;SDS011;1785;47.388;8.538;2023-12-29T05:48:52;7.43;;;6.80;;
3541;SDS011;1785;47.388;8.538;2023-12-29T05:51:19;7.30;;;6.70;;
3541;SDS011;1785;47.388;8.538;2023-12-29T05:53:45;7.33;;;6.30;;
3541;SDS011;1785;47.388;8.538;2023-12-29T05:56:12;8.30;;;7.07;;
3541;SDS011;1785;47.388;8.538;2023-12-29T05:58:39;6.73;;;6.23;;
3541;SDS011;1785;47.388;8.538;2023-12-29T06:01:06;7.07;;;6.20;;
3541;SDS011;1785;47.388;8.538;2023-12-29T06:03:32;6.83;;;6.23;;
3541;SDS011;1785;47.388;8.538;2023-12-29T06:05:59;6.70;;;6.10;;
3541;SDS011;1785;47.388;8.538;2023-12-29T06:08:25;6.87;;;6.20;;
3541;SDS011;1785;47.388;8.538;2023-12-29T06:10:52;8.93;;;6.90;;
3541;SDS011;1785;47.388;8.538;2023-12-29T06:13:18;6.57;;;6.07;;
3541;SDS011;1785;47.388;8.538;2023-12-29T06:15:44;7.10;;;6.47;;
3541;SDS011;1785;47.388;8.538;2023-12-29T06:18:11;6.97;;;6.37;;
3541;SDS011;1785;47.388;8.538;2023-12-29T06:20:37;7.07;;;6.50;;
3541;SDS011;1785;47.388;8.538;2023-12-29T06:23:03;7.93;;;7.33;;
3541;SDS011;1785;47.388;8.538;2023-12-29T06:25:30;6.47;;;5.97;;
3541;SDS011;1785;47.388;8.538;2023-12-29T06:27:58;7.10;;;6.47;;
3541;SDS011;1785;47.388;8.538;2023-12-29T06:30:24;7.30;;;6.70;;
3541;SDS011;1785;47.388;8.538;2023-12-29T06:32:50;7.60;;;6.77;;
3541;SDS011;1785;47.388;8.538;2023-12-29T06:35:17;7.23;;;6.63;;
3541;SDS011;1785;47.388;8.538;2023-12-29T06:37:43;7.57;;;6.87;;
3541;SDS011;1785;47.388;8.538;2023-12-29T06:40:09;6.87;;;6.20;;
3541;SDS011;1785;47.388;8.538;2023-12-29T06:42:37;6.70;;;5.90;;
3541;SDS011;1785;47.388;8.538;2023-12-29T06:45:04;6.60;;;6.00;;
3541;SDS011;1785;47.388;8.538;2023-12-29T06:47:33;7.80;;;7.03;;
3541;SDS011;1785;47.388;8.538;2023-12-29T06:49:59;7.43;;;6.87;;
3541;SDS011;1785;47.388;8.538;2023-12-29T06:52:27;8.57;;;7.70;;
3541;SDS011;1785;47.388;8.538;2023-12-29T06:54:55;8.37;;;7.40;;
3541;SDS011;1785;47.388;8.538;2023-12-29T06:57:21;6.70;;;6.20;;
3541;SDS011;1785;47.388;8.538;2023-12-29T06:59:48;7.60;;;6.90;;
3541;SDS011;1785;47.388;8.538;2023-12-29T07:02:14;6.83;;;6.33;;
3541;SDS011;1785;47.388;8.538;2023-12-29T07:04:41;6.50;;;6.00;;
3541;SDS011;1785;47.388;8.538;2023-12-29T07:07:08;6.93;;;6.40;;
3541;SDS011;1785;47.388;8.538;2023-12-29T07:09:34;6.90;;;6.30;;
3541;SDS011;1785;47.388;8.538;2023-12-29T07:12:04;5.70;;;5.20;;
3541;SDS011;1785;47.388;8.538;2023-12-29T07:14:30;6.37;;;5.77;;
3541;SDS011;1785;47.388;8.538;2023-12-29T07:16:57;7.50;;;6.90;;
3541;SDS011;1785;47.388;8.538;2023-12-29T07:19:23;6.50;;;6.00;;
3541;SDS011;1785;47.388;8.538;2023-12-29T07:21:49;7.37;;;6.67;;
3541;SDS011;1785;47.388;8.538;2023-12-29T07:24:16;6.43;;;5.83;;
3541;SDS011;1785;47.388;8.538;2023-12-29T07:26:42;6.20;;;5.70;;
3541;SDS011;1785;47.388;8.538;2023-12-29T07:29:08;5.93;;;5.53;;
3541;SDS011;1785;47.388;8.538;2023-12-29T07:31:37;6.47;;;5.87;;
3541;SDS011;1785;47.388;8.538;2023-12-29T07:34:05;8.10;;;7.37;;
3541;SDS011;1785;47.388;8.538;2023-12-29T07:36:31;7.30;;;6.70;;
3541;SDS011;1785;47.388;8.538;2023-12-29T07:38:57;6.97;;;6.37;;
3541;SDS011;1785;47.388;8.538;2023-12-29T07:41:24;7.07;;;6.47;;
3541;SDS011;1785;47.388;8.538;2023-12-29T07:43:50;6.57;;;6.03;;
3541;SDS011;1785;47.388;8.538;2023-12-29T07:46:23;5.87;;;5.37;;
3541;SDS011;1785;47.388;8.538;2023-12-29T07:48:50;4.63;;;4.23;;
3541;SDS011;1785;47.388;8.538;2023-12-29T07:51:16;5.30;;;4.90;;
3541;SDS011;1785;47.388;8.538;2023-12-29T07:53:43;8.43;;;6.20;;
3541;SDS011;1785;47.388;8.538;2023-12-29T07:56:10;5.30;;;4.90;;
3541;SDS011;1785;47.388;8.538;2023-12-29T07:58:36;4.90;;;4.53;;
3541;SDS011;1785;47.388;8.538;2023-12-29T08:01:02;5.37;;;4.93;;
3541;SDS011;1785;47.388;8.538;2023-12-29T08:03:28;5.10;;;4.60;;
3541;SDS011;1785;47.388;8.538;2023-12-29T08:05:55;6.10;;;5.60;;
3541;SDS011;1785;47.388;8.538;2023-12-29T08:08:22;4.70;;;4.40;;
3541;SDS011;1785;47.388;8.538;2023-12-29T08:10:48;4.73;;;4.33;;
3541;SDS011;1785;47.388;8.538;2023-12-29T08:13:14;5.70;;;5.20;;
3541;SDS011;1785;47.388;8.538;2023-12-29T08:15:40;6.17;;;4.90;;
3541;SDS011;1785;47.388;8.538;2023-12-29T08:18:08;6.20;;;4.73;;
3541;SDS011;1785;47.388;8.538;2023-12-29T08:20:34;4.40;;;4.10;;
3541;SDS011;1785;47.388;8.538;2023-12-29T08:23:01;5.30;;;4.33;;
3541;SDS011;1785;47.388;8.538;2023-12-29T08:25:28;5.50;;;5.10;;
3541;SDS011;1785;47.388;8.538;2023-12-29T08:27:55;4.30;;;4.00;;
3541;SDS011;1785;47.388;8.538;2023-12-29T08:30:21;5.30;;;4.90;;
3541;SDS011;1785;47.388;8.538;2023-12-29T08:32:47;5.30;;;4.80;;
3541;SDS011;1785;47.388;8.538;2023-12-29T08:35:14;5.03;;;4.63;;
3541;SDS011;1785;47.388;8.538;2023-12-29T08:37:40;4.20;;;3.90;;
3541;SDS011;1785;47.388;8.538;2023-12-29T08:40:06;4.10;;;3.80;;
3541;SDS011;1785;47.388;8.538;2023-12-29T08:42:34;4.80;;;4.50;;
3541;SDS011;1785;47.388;8.538;2023-12-29T08:45:00;4.23;;;3.83;;
3541;SDS011;1785;47.388;8.538;2023-12-29T08:47:28;4.30;;;4.00;;
3541;SDS011;1785;47.388;8.538;2023-12-29T08:49:54;6.20;;;4.77;;
3541;SDS011;1785;47.388;8.538;2023-12-29T08:52:20;5.83;;;5.33;;
3541;SDS011;1785;47.388;8.538;2023-12-29T08:54:46;5.13;;;4.73;;
3541;SDS011;1785;47.388;8.538;2023-12-29T08:57:12;4.60;;;4.30;;
3541;SDS011;1785;47.388;8.538;2023-12-29T08:59:39;5.70;;;5.20;;
3541;SDS011;1785;47.388;8.538;2023-12-29T09:02:06;4.70;;;4.40;;
3541;SDS011;1785;47.388;8.538;2023-12-29T09:04:32;7.30;;;4.17;;
3541;SDS011;1785;47.388;8.538;2023-12-29T09:06:58;4.23;;;3.93;;
3541;SDS011;1785;47.388;8.538;2023-12-29T09:09:24;4.60;;;4.20;;
3541;SDS011;1785;47.388;8.538;2023-12-29T09:11:50;4.30;;;4.00;;
3541;SDS011;1785;47.388;8.538;2023-12-29T09:14:17;4.30;;;4.00;;
3541;SDS011;1785;47.388;8.538;2023-12-29T09:16:44;4.47;;;4.07;;
3541;SDS011;1785;47.388;8.538;2023-12-29T09:19:11;8.67;;;4.50;;
3541;SDS011;1785;47.388;8.538;2023-12-29T09:21:38;4.40;;;4.00;;
3541;SDS011;1785;47.388;8.538;2023-12-29T09:24:04;5.73;;;5.20;;
3541;SDS011;1785;47.388;8.538;2023-12-29T09:26:30;5.43;;;4.80;;
3541;SDS011;1785;47.388;8.538;2023-12-29T09:28:57;5.07;;;4.60;;
3541;SDS011;1785;47.388;8.538;2023-12-29T09:31:23;4.13;;;3.83;;
3541;SDS011;1785;47.388;8.538;2023-12-29T09:33:49;5.43;;;3.90;;
3541;SDS011;1785;47.388;8.538;2023-12-29T09:36:16;5.57;;;5.07;;
3541;SDS011;1785;47.388;8.538;2023-12-29T09:38:42;4.43;;;4.07;;
3541;SDS011;1785;47.388;8.538;2023-12-29T09:41:11;4.40;;;4.03;;
3541;SDS011;1785;47.388;8.538;2023-12-29T09:43:40;4.37;;;4.07;;
3541;SDS011;1785;47.388;8.538;2023-12-29T09:46:07;4.13;;;3.83;;
3541;SDS011;1785;47.388;8.538;2023-12-29T09:48:34;4.90;;;4.40;;
3541;SDS011;1785;47.388;8.538;2023-12-29T09:51:04;5.20;;;4.70;;
3541;SDS011;1785;47.388;8.538;2023-12-29T09:53:30;4.80;;;4.40;;
3541;SDS011;1785;47.388;8.538;2023-12-29T09:55:57;4.43;;;4.13;;
3541;SDS011;1785;47.388;8.538;2023-12-29T09:58:26;5.20;;;4.77;;
3541;SDS011;1785;47.388;8.538;2023-12-29T10:00:52;4.07;;;3.87;;
3541;SDS011;1785;47.388;8.538;2023-12-29T10:03:19;5.37;;;4.87;;
3541;SDS011;1785;47.388;8.538;2023-12-29T10:05:46;4.40;;;4.00;;
3541;SDS011;1785;47.388;8.538;2023-12-29T10:08:22;5.33;;;4.90;;
3541;SDS011;1785;47.388;8.538;2023-12-29T10:10:49;4.73;;;4.03;;
3541;SDS011;1785;47.388;8.538;2023-12-29T10:13:16;4.63;;;4.23;;
3541;SDS011;1785;47.388;8.538;2023-12-29T10:15:47;4.03;;;3.73;;
3541;SDS011;1785;47.388;8.538;2023-12-29T10:18:18;5.30;;;4.00;;
3541;SDS011;1785;47.388;8.538;2023-12-29T10:20:49;4.63;;;4.30;;
3541;SDS011;1785;47.388;8.538;2023-12-29T10:23:23;5.83;;;4.83;;
3541;SDS011;1785;47.388;8.538;2023-12-29T10:26:00;6.20;;;4.13;;
3541;SDS011;1785;47.388;8.538;2023-12-29T10:28:27;5.73;;;5.30;;
3541;SDS011;1785;47.388;8.538;2023-12-29T10:30:53;5.70;;;5.30;;
3541;SDS011;1785;47.388;8.538;2023-12-29T10:33:20;5.70;;;5.20;;
3541;SDS011;1785;47.388;8.538;2023-12-29T10:35:56;5.40;;;5.00;;
3541;SDS011;1785;47.388;8.538;2023-12-29T10:38:23;5.40;;;4.97;;
3541;SDS011;1785;47.388;8.538;2023-12-29T10:40:50;5.80;;;5.10;;
3541;SDS011;1785;47.388;8.538;2023-12-29T10:43:21;5.30;;;4.90;;
3541;SDS011;1785;47.388;8.538;2023-12-29T10:45:47;5.43;;;4.93;;
3541;SDS011;1785;47.388;8.538;2023-12-29T10:48:14;6.50;;;5.90;;
3541;SDS011;1785;47.388;8.538;2023-12-29T10:50:47;6.10;;;5.60;;
3541;SDS011;1785;47.388;8.538;2023-12-29T10:53:14;6.33;;;5.60;;
3541;SDS011;1785;47.388;8.538;2023-12-29T10:55:42;6.30;;;5.57;;
3541;SDS011;1785;47.388;8.538;2023-12-29T10:58:09;6.00;;;5.40;;
3541;SDS011;1785;47.388;8.538;2023-12-29T11:00:35;5.33;;;4.83;;
3541;SDS011;1785;47.388;8.538;2023-12-29T11:03:01;5.63;;;5.13;;
3541;SDS011;1785;47.388;8.538;2023-12-29T11:05:28;5.90;;;5.30;;
3541;SDS011;1785;47.388;8.538;2023-12-29T11:07:54;5.10;;;4.80;;
3541;SDS011;1785;47.388;8.538;2023-12-29T11:10:21;4.70;;;4.37;;
3541;SDS011;1785;47.388;8.538;2023-12-29T11:12:48;5.87;;;5.27;;
3541;SDS011;1785;47.388;8.538;2023-12-29T11:15:15;5.13;;;4.73;;
3541;SDS011;1785;47.388;8.538;2023-12-29T11:17:43;5.33;;;4.93;;
3541;SDS011;1785;47.388;8.538;2023-12-29T11:20:14;6.13;;;5.63;;
3541;SDS011;1785;47.388;8.538;2023-12-29T11:22:41;7.63;;;5.63;;
3541;SDS011;1785;47.388;8.538;2023-12-29T11:25:08;6.77;;;6.27;;
3541;SDS011;1785;47.388;8.538;2023-12-29T11:27:35;7.10;;;6.50;;
3541;SDS011;1785;47.388;8.538;2023-12-29T11:30:03;6.40;;;5.80;;
3541;SDS011;1785;47.388;8.538;2023-12-29T11:32:32;6.43;;;5.93;;
3541;SDS011;1785;47.388;8.538;2023-12-29T11:35:10;6.83;;;6.23;;
3541;SDS011;1785;47.388;8.538;2023-12-29T11:37:44;6.40;;;5.93;;
3541;SDS011;1785;47.388;8.538;2023-12-29T11:40:23;8.60;;;7.60;;
3541;SDS011;1785;47.388;8.538;2023-12-29T11:42:54;7.77;;;7.07;;
3541;SDS011;1785;47.388;8.538;2023-12-29T11:45:28;7.80;;;7.10;;
3541;SDS011;1785;47.388;8.538;2023-12-29T11:47:57;7.17;;;6.57;;
3541;SDS011;1785;47.388;8.538;2023-12-29T11:50:27;8.07;;;6.57;;
3541;SDS011;1785;47.388;8.538;2023-12-29T11:52:55;8.13;;;7.43;;
3541;SDS011;1785;47.388;8.538;2023-12-29T11:55:23;7.20;;;6.53;;
3541;SDS011;1785;47.388;8.538;2023-12-29T11:57:54;7.33;;;6.83;;
3541;SDS011;1785;47.388;8.538;2023-12-29T12:00:20;8.10;;;7.40;;
3541;SDS011;1785;47.388;8.538;2023-12-29T12:03:13;7.43;;;6.73;;
3541;SDS011;1785;47.388;8.538;2023-12-29T12:05:46;7.73;;;7.10;;
3541;SDS011;1785;47.388;8.538;2023-12-29T12:14:03;8.43;;;7.63;;
3541;SDS011;1785;47.388;8.538;2023-12-29T12:16:49;9.43;;;8.63;;
3541;SDS011;1785;47.388;8.538;2023-12-29T12:19:17;9.20;;;8.40;;
3541;SDS011;1785;47.388;8.538;2023-12-29T12:21:46;8.97;;;8.17;;
3541;SDS011;1785;47.388;8.538;2023-12-29T12:24:14;8.70;;;7.80;;
3541;SDS011;1785;47.388;8.538;2023-12-29T12:26:43;8.30;;;7.60;;
3541;SDS011;1785;47.388;8.538;2023-12-29T12:29:09;9.00;;;8.30;;
3541;SDS011;1785;47.388;8.538;2023-12-29T12:31:39;8.00;;;7.33;;
3541;SDS011;1785;47.388;8.538;2023-12-29T12:34:18;8.37;;;7.70;;
3541;SDS011;1785;47.388;8.538;2023-12-29T12:36:47;7.60;;;7.00;;
3541;SDS011;1785;47.388;8.538;2023-12-29T12:39:14;8.03;;;7.43;;
3541;SDS011;1785;47.388;8.538;2023-12-29T12:41:40;9.40;;;8.43;;
3541;SDS011;1785;47.388;8.538;2023-12-29T12:44:08;8.30;;;7.60;;
3541;SDS011;1785;47.388;8.538;2023-12-29T12:46:50;7.80;;;7.00;;
3541;SDS011;1785;47.388;8.538;2023-12-29T12:49:23;7.40;;;6.70;;
3541;SDS011;1785;47.388;8.538;2023-12-29T12:51:49;8.50;;;6.80;;
3541;SDS011;1785;47.388;8.538;2023-12-29T12:54:17;7.27;;;6.67;;
3541;SDS011;1785;47.388;8.538;2023-12-29T12:56:43;7.70;;;6.97;;
3541;SDS011;1785;47.388;8.538;2023-12-29T12:59:10;7.43;;;6.83;;
3541;SDS011;1785;47.388;8.538;2023-12-29T13:01:37;8.63;;;7.47;;
3541;SDS011;1785;47.388;8.538;2023-12-29T13:04:04;8.00;;;7.40;;
3541;SDS011;1785;47.388;8.538;2023-12-29T13:06:31;8.70;;;7.80;;
3541;SDS011;1785;47.388;8.538;2023-12-29T13:08:58;8.37;;;7.67;;
3541;SDS011;1785;47.388;8.538;2023-12-29T13:11:26;8.37;;;7.60;;
3541;SDS011;1785;47.388;8.538;2023-12-29T13:13:52;9.87;;;7.00;;
3541;SDS011;1785;47.388;8.538;2023-12-29T13:16:28;7.10;;;6.40;;
3541;SDS011;1785;47.388;8.538;2023-12-29T13:18:54;7.53;;;6.87;;
3541;SDS011;1785;47.388;8.538;2023-12-29T13:21:21;7.97;;;7.23;;
3541;SDS011;1785;47.388;8.538;2023-12-29T13:23:48;7.33;;;6.70;;
3541;SDS011;1785;47.388;8.538;2023-12-29T13:26:14;6.83;;;6.13;;
3541;SDS011;1785;47.388;8.538;2023-12-29T13:28:44;6.10;;;5.50;;
3541;SDS011;1785;47.388;8.538;2023-12-29T13:31:11;8.40;;;7.70;;
3541;SDS011;1785;47.388;8.538;2023-12-29T13:33:42;10.40;;;7.50;;
3541;SDS011;1785;47.388;8.538;2023-12-29T13:36:14;8.10;;;7.30;;
3541;SDS011;1785;47.388;8.538;2023-12-29T13:38:50;8.43;;;7.73;;
3541;SDS011;1785;47.388;8.538;2023-12-29T13:41:19;9.40;;;7.87;;
3541;SDS011;1785;47.388;8.538;2023-12-29T13:43:48;7.43;;;6.73;;
3541;SDS011;1785;47.388;8.538;2023-12-29T13:46:17;6.47;;;5.90;;
3541;SDS011;1785;47.388;8.538;2023-12-29T13:48:43;7.00;;;6.40;;
3541;SDS011;1785;47.388;8.538;2023-12-29T13:51:14;6.63;;;5.97;;
3541;SDS011;1785;47.388;8.538;2023-12-29T13:53:40;8.30;;;7.40;;
3541;SDS011;1785;47.388;8.538;2023-12-29T13:56:07;7.17;;;6.57;;
3541;SDS011;1785;47.388;8.538;2023-12-29T13:58:34;6.70;;;6.00;;
3541;SDS011;1785;47.388;8.538;2023-12-29T14:01:00;8.00;;;6.50;;
3541;SDS011;1785;47.388;8.538;2023-12-29T14:03:31;7.67;;;6.87;;
3541;SDS011;1785;47.388;8.538;2023-12-29T14:06:03;7.47;;;6.77;;
3541;SDS011;1785;47.388;8.538;2023-12-29T14:08:33;7.63;;;6.93;;
3541;SDS011;1785;47.388;8.538;2023-12-29T14:11:07;7.00;;;6.40;;
3541;SDS011;1785;47.388;8.538;2023-12-29T14:13:34;9.60;;;6.53;;
3541;SDS011;1785;47.388;8.538;2023-12-29T14:16:00;7.93;;;5.60;;
3541;SDS011;1785;47.388;8.538;2023-12-29T14:18:33;5.63;;;5.13;;
3541;SDS011;1785;47.388;8.538;2023-12-29T14:21:26;4.57;;;4.27;;
3541;SDS011;1785;47.388;8.538;2023-12-29T14:23:59;4.43;;;4.13;;
3541;SDS011;1785;47.388;8.538;2023-12-29T14:26:28;5.20;;;4.70;;
3541;SDS011;1785;47.388;8.538;2023-12-29T14:29:02;4.43;;;4.10;;
3541;SDS011;1785;47.388;8.538;2023-12-29T14:31:28;4.70;;;4.20;;
3541;SDS011;1785;47.388;8.538;2023-12-29T14:33:58;3.90;;;3.60;;
3541;SDS011;1785;47.388;8.538;2023-12-29T14:36:24;5.17;;;4.00;;
3541;SDS011;1785;47.388;8.538;2023-12-29T14:38:51;4.07;;;3.67;;
3541;SDS011;1785;47.388;8.538;2023-12-29T14:41:17;4.07;;;3.77;;
3541;SDS011;1785;47.388;8.538;2023-12-29T14:43:44;3.80;;;3.50;;
3541;SDS011;1785;47.388;8.538;2023-12-29T14:46:10;3.87;;;3.57;;
3541;SDS011;1785;47.388;8.538;2023-12-29T14:48:36;4.73;;;4.17;;
3541;SDS011;1785;47.388;8.538;2023-12-29T14:51:04;4.00;;;3.70;;
3541;SDS011;1785;47.388;8.538;2023-12-29T14:53:30;4.97;;;4.50;;
3541;SDS011;1785;47.388;8.538;2023-12-29T14:55:56;4.10;;;3.80;;
3541;SDS011;1785;47.388;8.538;2023-12-29T14:58:22;3.87;;;3.57;;
3541;SDS011;1785;47.388;8.538;2023-12-29T15:00:49;4.63;;;3.90;;
3541;SDS011;1785;47.388;8.538;2023-12-29T15:03:15;3.87;;;3.57;;
3541;SDS011;1785;47.388;8.538;2023-12-29T15:05:43;4.13;;;3.73;;
3541;SDS011;1785;47.388;8.538;2023-12-29T15:08:09;3.60;;;3.40;;
3541;SDS011;1785;47.388;8.538;2023-12-29T15:10:35;4.37;;;3.97;;
3541;SDS011;1785;47.388;8.538;2023-12-29T15:13:01;4.03;;;3.73;;
3541;SDS011;1785;47.388;8.538;2023-12-29T15:15:27;7.57;;;3.73;;
3541;SDS011;1785;47.388;8.538;2023-12-29T15:17:54;4.90;;;4.40;;
3541;SDS011;1785;47.388;8.538;2023-12-29T15:20:20;3.70;;;3.47;;
3541;SDS011;1785;47.388;8.538;2023-12-29T15:22:47;4.30;;;3.90;;